Alida, Minnesota
Current Conditions -  °F | °C
As of 11:53 AM on Thursday 30 Oct 2014 (Local Time) from KBJI Reporting Station
Overcast Overcast  
Wind Chill: -2°   Ceiling: 1700
Heat Index:   Visibility: 10mi
Dew Point:   Wind: 12mph
Humidity: 81%   Direction: 330°NNW
Pressure: 30.17"   Gusts: 17mph
Location:  47.4609°N, 95.2384°W
Report Text: KBJI 301653Z AUTO 33010G15KT 10SM OVC017 03/00 A3017 RMK AO2 T00251004
Loading
Personal Weather Stations






























Interactive Weather Map
Tropical Storm Tracking
New forecast layout! Learn more

10-Day Weather Forecast

Advertisements
Track Severe Weather on mobile